sensor_id;sensor_type;location;lat;lon;timestamp;temperature;humidity
67974;DHT22;54756;51.140;6.952;2023-08-08T00:00:38;16.10;88.80
67974;DHT22;54756;51.140;6.952;2023-08-08T00:02:40;16.00;88.80
67974;DHT22;54756;51.140;6.952;2023-08-08T00:04:40;16.00;88.80
67974;DHT22;54756;51.140;6.952;2023-08-08T00:06:41;16.00;89.00
67974;DHT22;54756;51.140;6.952;2023-08-08T00:08:41;16.00;89.00
67974;DHT22;54756;51.140;6.952;2023-08-08T00:10:42;16.00;89.00
67974;DHT22;54756;51.140;6.952;2023-08-08T00:12:42;16.00;89.00
67974;DHT22;54756;51.140;6.952;2023-08-08T00:14:43;16.00;89.10
67974;DHT22;54756;51.140;6.952;2023-08-08T00:16:43;15.90;88.70
67974;DHT22;54756;51.140;6.952;2023-08-08T00:18:44;15.90;88.70
67974;DHT22;54756;51.140;6.952;2023-08-08T00:20:44;15.90;89.00
67974;DHT22;54756;51.140;6.952;2023-08-08T00:22:45;15.90;89.00
67974;DHT22;54756;51.140;6.952;2023-08-08T00:24:45;15.80;89.10
67974;DHT22;54756;51.140;6.952;2023-08-08T00:26:46;15.80;89.10
67974;DHT22;54756;51.140;6.952;2023-08-08T00:28:47;15.80;89.40
67974;DHT22;54756;51.140;6.952;2023-08-08T00:30:47;15.80;89.50
67974;DHT22;54756;51.140;6.952;2023-08-08T00:32:48;15.80;89.60
67974;DHT22;54756;51.140;6.952;2023-08-08T00:34:48;15.70;89.50
67974;DHT22;54756;51.140;6.952;2023-08-08T00:36:49;15.70;89.70
67974;DHT22;54756;51.140;6.952;2023-08-08T00:38:49;15.70;90.00
67974;DHT22;54756;51.140;6.952;2023-08-08T00:40:50;15.60;90.00
67974;DHT22;54756;51.140;6.952;2023-08-08T00:42:50;15.60;90.00
67974;DHT22;54756;51.140;6.952;2023-08-08T00:44:51;15.60;90.20
67974;DHT22;54756;51.140;6.952;2023-08-08T00:46:51;15.60;90.20
67974;DHT22;54756;51.140;6.952;2023-08-08T00:48:52;15.60;90.30
67974;DHT22;54756;51.140;6.952;2023-08-08T00:50:53;15.50;90.20
67974;DHT22;54756;51.140;6.952;2023-08-08T00:52:54;15.50;90.20
67974;DHT22;54756;51.140;6.952;2023-08-08T00:54:55;15.50;90.30
67974;DHT22;54756;51.140;6.952;2023-08-08T00:56:56;15.50;90.30
67974;DHT22;54756;51.140;6.952;2023-08-08T00:58:56;15.50;90.30
67974;DHT22;54756;51.140;6.952;2023-08-08T01:00:57;15.50;90.30
67974;DHT22;54756;51.140;6.952;2023-08-08T01:03:00;15.50;90.30
67974;DHT22;54756;51.140;6.952;2023-08-08T01:05:01;15.50;90.40
67974;DHT22;54756;51.140;6.952;2023-08-08T01:10:33;15.40;90.40
67974;DHT22;54756;51.140;6.952;2023-08-08T01:12:06;15.40;90.50
67974;DHT22;54756;51.140;6.952;2023-08-08T01:14:08;15.30;90.70
67974;DHT22;54756;51.140;6.952;2023-08-08T01:16:09;15.30;90.90
67974;DHT22;54756;51.140;6.952;2023-08-08T01:18:11;15.40;90.90
67974;DHT22;54756;51.140;6.952;2023-08-08T01:20:14;15.40;90.70
67974;DHT22;54756;51.140;6.952;2023-08-08T01:22:32;15.40;90.60
67974;DHT22;54756;51.140;6.952;2023-08-08T01:24:36;15.40;90.60
67974;DHT22;54756;51.140;6.952;2023-08-08T01:26:37;15.40;90.60
67974;DHT22;54756;51.140;6.952;2023-08-08T01:28:39;15.50;90.70
67974;DHT22;54756;51.140;6.952;2023-08-08T01:30:39;15.50;90.60
67974;DHT22;54756;51.140;6.952;2023-08-08T01:32:40;15.50;90.50
67974;DHT22;54756;51.140;6.952;2023-08-08T01:34:41;15.50;90.30
67974;DHT22;54756;51.140;6.952;2023-08-08T01:37:09;15.50;90.30
67974;DHT22;54756;51.140;6.952;2023-08-08T01:39:14;15.50;90.20
67974;DHT22;54756;51.140;6.952;2023-08-08T01:41:17;15.50;90.00
67974;DHT22;54756;51.140;6.952;2023-08-08T01:43:20;15.60;90.00
67974;DHT22;54756;51.140;6.952;2023-08-08T01:45:21;15.50;90.00
67974;DHT22;54756;51.140;6.952;2023-08-08T01:47:21;15.50;90.10
67974;DHT22;54756;51.140;6.952;2023-08-08T01:49:22;15.60;90.10
67974;DHT22;54756;51.140;6.952;2023-08-08T01:51:23;15.60;90.00
67974;DHT22;54756;51.140;6.952;2023-08-08T01:53:25;15.60;89.80
67974;DHT22;54756;51.140;6.952;2023-08-08T01:55:26;15.60;89.70
67974;DHT22;54756;51.140;6.952;2023-08-08T01:57:27;15.60;89.30
67974;DHT22;54756;51.140;6.952;2023-08-08T01:59:27;15.60;89.20
67974;DHT22;54756;51.140;6.952;2023-08-08T02:01:28;15.60;89.30
67974;DHT22;54756;51.140;6.952;2023-08-08T02:03:28;15.60;89.30
67974;DHT22;54756;51.140;6.952;2023-08-08T02:05:29;15.60;89.00
67974;DHT22;54756;51.140;6.952;2023-08-08T02:07:29;15.50;88.90
67974;DHT22;54756;51.140;6.952;2023-08-08T02:09:30;15.50;88.90
67974;DHT22;54756;51.140;6.952;2023-08-08T02:11:31;15.50;88.80
67974;DHT22;54756;51.140;6.952;2023-08-08T02:13:31;15.50;88.70
67974;DHT22;54756;51.140;6.952;2023-08-08T02:15:32;15.40;88.90
67974;DHT22;54756;51.140;6.952;2023-08-08T02:17:32;15.40;89.30
67974;DHT22;54756;51.140;6.952;2023-08-08T02:19:33;15.40;89.20
67974;DHT22;54756;51.140;6.952;2023-08-08T02:21:33;15.40;89.20
67974;DHT22;54756;51.140;6.952;2023-08-08T02:23:34;15.40;89.20
67974;DHT22;54756;51.140;6.952;2023-08-08T02:25:35;15.40;89.00
67974;DHT22;54756;51.140;6.952;2023-08-08T02:27:35;15.40;89.10
67974;DHT22;54756;51.140;6.952;2023-08-08T02:29:36;15.30;89.40
67974;DHT22;54756;51.140;6.952;2023-08-08T02:31:36;15.30;89.40
67974;DHT22;54756;51.140;6.952;2023-08-08T02:33:37;15.30;89.50
67974;DHT22;54756;51.140;6.952;2023-08-08T02:35:38;15.30;89.50
67974;DHT22;54756;51.140;6.952;2023-08-08T02:37:38;15.30;89.40
67974;DHT22;54756;51.140;6.952;2023-08-08T02:39:39;15.30;89.70
67974;DHT22;54756;51.140;6.952;2023-08-08T02:41:39;15.30;89.80
67974;DHT22;54756;51.140;6.952;2023-08-08T02:43:40;15.30;90.00
67974;DHT22;54756;51.140;6.952;2023-08-08T02:45:40;15.30;89.80
67974;DHT22;54756;51.140;6.952;2023-08-08T02:47:41;15.40;89.70
67974;DHT22;54756;51.140;6.952;2023-08-08T02:49:41;15.40;89.10
67974;DHT22;54756;51.140;6.952;2023-08-08T02:51:42;15.40;89.20
67974;DHT22;54756;51.140;6.952;2023-08-08T02:53:42;15.40;89.50
67974;DHT22;54756;51.140;6.952;2023-08-08T02:55:43;15.40;89.40
67974;DHT22;54756;51.140;6.952;2023-08-08T02:57:43;15.40;89.20
67974;DHT22;54756;51.140;6.952;2023-08-08T02:59:44;15.40;89.10
67974;DHT22;54756;51.140;6.952;2023-08-08T03:01:45;15.40;89.40
67974;DHT22;54756;51.140;6.952;2023-08-08T03:03:45;15.40;89.20
67974;DHT22;54756;51.140;6.952;2023-08-08T03:05:46;15.40;89.00
67974;DHT22;54756;51.140;6.952;2023-08-08T03:07:47;15.30;88.60
67974;DHT22;54756;51.140;6.952;2023-08-08T03:09:47;15.30;88.90
67974;DHT22;54756;51.140;6.952;2023-08-08T03:11:48;15.30;88.90
67974;DHT22;54756;51.140;6.952;2023-08-08T03:13:49;15.30;88.80
67974;DHT22;54756;51.140;6.952;2023-08-08T03:15:49;15.30;88.80
67974;DHT22;54756;51.140;6.952;2023-08-08T03:17:50;15.30;88.90
67974;DHT22;54756;51.140;6.952;2023-08-08T03:19:50;15.20;89.10
67974;DHT22;54756;51.140;6.952;2023-08-08T03:21:51;15.20;89.30
67974;DHT22;54756;51.140;6.952;2023-08-08T03:23:53;15.20;89.30
67974;DHT22;54756;51.140;6.952;2023-08-08T03:25:54;15.20;89.60
67974;DHT22;54756;51.140;6.952;2023-08-08T03:27:54;15.20;89.70
67974;DHT22;54756;51.140;6.952;2023-08-08T03:29:55;15.20;89.90
67974;DHT22;54756;51.140;6.952;2023-08-08T03:31:55;15.20;90.00
67974;DHT22;54756;51.140;6.952;2023-08-08T03:33:56;15.20;90.00
67974;DHT22;54756;51.140;6.952;2023-08-08T03:35:56;15.20;90.00
67974;DHT22;54756;51.140;6.952;2023-08-08T03:37:57;15.20;90.00
67974;DHT22;54756;51.140;6.952;2023-08-08T03:39:57;15.20;90.00
67974;DHT22;54756;51.140;6.952;2023-08-08T03:41:58;15.20;89.70
67974;DHT22;54756;51.140;6.952;2023-08-08T03:43:59;15.20;89.90
67974;DHT22;54756;51.140;6.952;2023-08-08T03:45:59;15.20;89.90
67974;DHT22;54756;51.140;6.952;2023-08-08T03:48:00;15.20;90.00
67974;DHT22;54756;51.140;6.952;2023-08-08T03:50:00;15.20;90.00
67974;DHT22;54756;51.140;6.952;2023-08-08T03:52:01;15.20;90.10
67974;DHT22;54756;51.140;6.952;2023-08-08T03:54:01;15.20;90.20
67974;DHT22;54756;51.140;6.952;2023-08-08T03:56:03;15.20;90.20
67974;DHT22;54756;51.140;6.952;2023-08-08T03:58:04;15.30;90.10
67974;DHT22;54756;51.140;6.952;2023-08-08T04:00:06;15.20;90.00
67974;DHT22;54756;51.140;6.952;2023-08-08T04:02:08;15.30;90.10
67974;DHT22;54756;51.140;6.952;2023-08-08T04:04:09;15.20;90.00
67974;DHT22;54756;51.140;6.952;2023-08-08T04:06:09;15.20;90.10
67974;DHT22;54756;51.140;6.952;2023-08-08T04:08:10;15.20;90.10
67974;DHT22;54756;51.140;6.952;2023-08-08T04:10:10;15.30;90.20
67974;DHT22;54756;51.140;6.952;2023-08-08T04:12:11;15.30;90.00
67974;DHT22;54756;51.140;6.952;2023-08-08T04:14:12;15.30;90.10
67974;DHT22;54756;51.140;6.952;2023-08-08T04:16:12;15.20;90.10
67974;DHT22;54756;51.140;6.952;2023-08-08T04:18:13;15.20;90.10
67974;DHT22;54756;51.140;6.952;2023-08-08T04:20:13;15.20;90.20
67974;DHT22;54756;51.140;6.952;2023-08-08T04:22:14;15.20;90.30
67974;DHT22;54756;51.140;6.952;2023-08-08T04:24:16;15.20;90.40
67974;DHT22;54756;51.140;6.952;2023-08-08T04:26:16;15.20;90.50
67974;DHT22;54756;51.140;6.952;2023-08-08T04:28:17;15.20;90.50
67974;DHT22;54756;51.140;6.952;2023-08-08T04:30:17;15.20;90.80
67974;DHT22;54756;51.140;6.952;2023-08-08T04:32:18;15.10;90.80
67974;DHT22;54756;51.140;6.952;2023-08-08T04:34:18;15.10;90.80
67974;DHT22;54756;51.140;6.952;2023-08-08T04:36:19;15.10;91.00
67974;DHT22;54756;51.140;6.952;2023-08-08T04:38:19;15.00;91.20
67974;DHT22;54756;51.140;6.952;2023-08-08T04:40:20;15.00;91.40
67974;DHT22;54756;51.140;6.952;2023-08-08T04:42:20;15.00;91.60
67974;DHT22;54756;51.140;6.952;2023-08-08T04:44:21;15.00;91.60
67974;DHT22;54756;51.140;6.952;2023-08-08T04:46:21;15.00;91.70
67974;DHT22;54756;51.140;6.952;2023-08-08T04:48:22;15.00;91.80
67974;DHT22;54756;51.140;6.952;2023-08-08T04:50:23;15.00;91.90
67974;DHT22;54756;51.140;6.952;2023-08-08T04:52:23;15.10;92.20
67974;DHT22;54756;51.140;6.952;2023-08-08T04:54:24;15.00;92.00
67974;DHT22;54756;51.140;6.952;2023-08-08T04:56:24;15.10;92.20
67974;DHT22;54756;51.140;6.952;2023-08-08T04:58:25;15.10;92.20
67974;DHT22;54756;51.140;6.952;2023-08-08T05:00:26;15.10;92.30
67974;DHT22;54756;51.140;6.952;2023-08-08T05:02:27;15.10;92.40
67974;DHT22;54756;51.140;6.952;2023-08-08T05:04:27;15.10;92.40
67974;DHT22;54756;51.140;6.952;2023-08-08T05:06:28;15.10;92.60
67974;DHT22;54756;51.140;6.952;2023-08-08T05:08:28;15.10;92.50
67974;DHT22;54756;51.140;6.952;2023-08-08T05:10:29;15.10;92.60
67974;DHT22;54756;51.140;6.952;2023-08-08T05:12:31;15.10;92.70
67974;DHT22;54756;51.140;6.952;2023-08-08T05:14:31;15.10;92.90
67974;DHT22;54756;51.140;6.952;2023-08-08T05:16:32;15.10;92.90
67974;DHT22;54756;51.140;6.952;2023-08-08T05:18:33;15.10;93.10
67974;DHT22;54756;51.140;6.952;2023-08-08T05:20:33;15.10;93.60
67974;DHT22;54756;51.140;6.952;2023-08-08T05:22:34;15.10;93.40
67974;DHT22;54756;51.140;6.952;2023-08-08T05:24:34;15.10;93.40
67974;DHT22;54756;51.140;6.952;2023-08-08T05:26:36;15.10;93.60
67974;DHT22;54756;51.140;6.952;2023-08-08T05:28:36;15.10;94.10
67974;DHT22;54756;51.140;6.952;2023-08-08T05:30:37;15.10;93.80
67974;DHT22;54756;51.140;6.952;2023-08-08T05:32:37;15.10;93.70
67974;DHT22;54756;51.140;6.952;2023-08-08T05:34:38;15.20;93.80
67974;DHT22;54756;51.140;6.952;2023-08-08T05:36:38;15.20;93.80
67974;DHT22;54756;51.140;6.952;2023-08-08T05:38:39;15.20;93.80
67974;DHT22;54756;51.140;6.952;2023-08-08T05:40:39;15.20;93.80
67974;DHT22;54756;51.140;6.952;2023-08-08T05:42:40;15.20;93.80
67974;DHT22;54756;51.140;6.952;2023-08-08T05:44:40;15.30;93.80
67974;DHT22;54756;51.140;6.952;2023-08-08T05:46:44;15.30;94.00
67974;DHT22;54756;51.140;6.952;2023-08-08T05:48:45;15.30;93.90
67974;DHT22;54756;51.140;6.952;2023-08-08T05:50:46;15.30;93.80
67974;DHT22;54756;51.140;6.952;2023-08-08T05:52:47;15.30;94.10
67974;DHT22;54756;51.140;6.952;2023-08-08T05:54:48;15.30;93.50
67974;DHT22;54756;51.140;6.952;2023-08-08T05:56:48;15.40;93.60
67974;DHT22;54756;51.140;6.952;2023-08-08T05:58:49;15.40;93.50
67974;DHT22;54756;51.140;6.952;2023-08-08T06:00:50;15.30;93.50
67974;DHT22;54756;51.140;6.952;2023-08-08T06:02:50;15.40;93.60
67974;DHT22;54756;51.140;6.952;2023-08-08T06:04:51;15.40;93.60
67974;DHT22;54756;51.140;6.952;2023-08-08T06:06:52;15.40;93.60
67974;DHT22;54756;51.140;6.952;2023-08-08T06:08:52;15.40;93.70
67974;DHT22;54756;51.140;6.952;2023-08-08T06:10:53;15.40;93.80
67974;DHT22;54756;51.140;6.952;2023-08-08T06:12:53;15.40;93.80
67974;DHT22;54756;51.140;6.952;2023-08-08T06:14:54;15.40;93.70
67974;DHT22;54756;51.140;6.952;2023-08-08T06:16:54;15.40;93.70
67974;DHT22;54756;51.140;6.952;2023-08-08T06:18:55;15.40;94.10
67974;DHT22;54756;51.140;6.952;2023-08-08T06:20:55;15.50;93.80
67974;DHT22;54756;51.140;6.952;2023-08-08T06:22:56;15.50;93.70
67974;DHT22;54756;51.140;6.952;2023-08-08T06:24:56;15.50;93.60
67974;DHT22;54756;51.140;6.952;2023-08-08T06:26:57;15.50;93.70
67974;DHT22;54756;51.140;6.952;2023-08-08T06:28:58;15.50;93.60
67974;DHT22;54756;51.140;6.952;2023-08-08T06:30:58;15.50;93.50
67974;DHT22;54756;51.140;6.952;2023-08-08T06:32:59;15.60;93.50
67974;DHT22;54756;51.140;6.952;2023-08-08T06:35:00;15.60;93.50
67974;DHT22;54756;51.140;6.952;2023-08-08T06:37:00;15.60;93.80
67974;DHT22;54756;51.140;6.952;2023-08-08T06:39:01;15.60;93.40
67974;DHT22;54756;51.140;6.952;2023-08-08T06:41:04;15.60;93.50
67974;DHT22;54756;51.140;6.952;2023-08-08T06:43:05;15.70;93.40
67974;DHT22;54756;51.140;6.952;2023-08-08T06:45:05;15.70;93.30
67974;DHT22;54756;51.140;6.952;2023-08-08T06:47:06;15.70;93.30
67974;DHT22;54756;51.140;6.952;2023-08-08T06:49:07;15.70;93.20
67974;DHT22;54756;51.140;6.952;2023-08-08T06:51:09;15.70;93.20
67974;DHT22;54756;51.140;6.952;2023-08-08T06:53:09;15.70;93.20
67974;DHT22;54756;51.140;6.952;2023-08-08T06:55:10;15.70;93.30
67974;DHT22;54756;51.140;6.952;2023-08-08T06:57:11;15.70;93.20
67974;DHT22;54756;51.140;6.952;2023-08-08T06:59:12;15.70;93.20
67974;DHT22;54756;51.140;6.952;2023-08-08T07:01:13;15.70;93.10
67974;DHT22;54756;51.140;6.952;2023-08-08T07:03:14;15.80;93.10
67974;DHT22;54756;51.140;6.952;2023-08-08T07:05:14;15.80;93.00
67974;DHT22;54756;51.140;6.952;2023-08-08T07:07:15;15.80;93.00
67974;DHT22;54756;51.140;6.952;2023-08-08T07:09:15;15.80;93.00
67974;DHT22;54756;51.140;6.952;2023-08-08T07:11:16;15.90;92.90
67974;DHT22;54756;51.140;6.952;2023-08-08T07:13:16;15.90;92.90
67974;DHT22;54756;51.140;6.952;2023-08-08T07:15:17;15.90;92.80
67974;DHT22;54756;51.140;6.952;2023-08-08T07:17:18;15.90;92.80
67974;DHT22;54756;51.140;6.952;2023-08-08T07:19:19;15.90;92.80
67974;DHT22;54756;51.140;6.952;2023-08-08T07:21:20;15.90;92.80
67974;DHT22;54756;51.140;6.952;2023-08-08T07:23:20;16.00;92.80
67974;DHT22;54756;51.140;6.952;2023-08-08T07:25:21;16.00;92.90
67974;DHT22;54756;51.140;6.952;2023-08-08T07:27:21;16.00;92.70
67974;DHT22;54756;51.140;6.952;2023-08-08T07:29:22;16.00;92.70
67974;DHT22;54756;51.140;6.952;2023-08-08T07:31:22;16.00;92.70
67974;DHT22;54756;51.140;6.952;2023-08-08T07:33:23;16.00;92.80
67974;DHT22;54756;51.140;6.952;2023-08-08T07:35:24;16.00;93.00
67974;DHT22;54756;51.140;6.952;2023-08-08T07:37:24;16.00;93.10
67974;DHT22;54756;51.140;6.952;2023-08-08T07:39:25;16.00;93.00
67974;DHT22;54756;51.140;6.952;2023-08-08T07:41:28;16.10;93.10
67974;DHT22;54756;51.140;6.952;2023-08-08T07:43:29;16.10;93.10
67974;DHT22;54756;51.140;6.952;2023-08-08T07:45:30;16.10;93.00
67974;DHT22;54756;51.140;6.952;2023-08-08T07:47:31;16.10;92.80
67974;DHT22;54756;51.140;6.952;2023-08-08T07:49:31;16.20;92.80
67974;DHT22;54756;51.140;6.952;2023-08-08T07:51:32;16.20;92.80
67974;DHT22;54756;51.140;6.952;2023-08-08T07:53:33;16.20;92.70
67974;DHT22;54756;51.140;6.952;2023-08-08T07:55:33;16.20;92.60
67974;DHT22;54756;51.140;6.952;2023-08-08T07:57:34;16.20;92.50
67974;DHT22;54756;51.140;6.952;2023-08-08T07:59:35;16.30;92.60
67974;DHT22;54756;51.140;6.952;2023-08-08T08:01:35;16.30;92.60
67974;DHT22;54756;51.140;6.952;2023-08-08T08:03:36;16.30;92.60
67974;DHT22;54756;51.140;6.952;2023-08-08T08:05:37;16.30;92.70
67974;DHT22;54756;51.140;6.952;2023-08-08T08:07:38;16.40;92.60
67974;DHT22;54756;51.140;6.952;2023-08-08T08:09:39;16.40;92.60
67974;DHT22;54756;51.140;6.952;2023-08-08T08:11:42;16.40;92.50
67974;DHT22;54756;51.140;6.952;2023-08-08T08:13:43;16.40;92.50
67974;DHT22;54756;51.140;6.952;2023-08-08T08:15:43;16.40;92.50
67974;DHT22;54756;51.140;6.952;2023-08-08T08:17:44;16.50;92.50
67974;DHT22;54756;51.140;6.952;2023-08-08T08:19:44;16.50;92.50
67974;DHT22;54756;51.140;6.952;2023-08-08T08:21:45;16.50;92.50
67974;DHT22;54756;51.140;6.952;2023-08-08T08:23:46;16.50;92.40
67974;DHT22;54756;51.140;6.952;2023-08-08T08:25:47;16.50;92.30
67974;DHT22;54756;51.140;6.952;2023-08-08T08:27:49;16.50;92.30
67974;DHT22;54756;51.140;6.952;2023-08-08T08:29:49;16.50;92.20
67974;DHT22;54756;51.140;6.952;2023-08-08T08:31:50;16.50;92.00
67974;DHT22;54756;51.140;6.952;2023-08-08T08:33:50;16.50;92.00
67974;DHT22;54756;51.140;6.952;2023-08-08T08:35:51;16.60;92.20
67974;DHT22;54756;51.140;6.952;2023-08-08T08:37:52;16.50;92.20
67974;DHT22;54756;51.140;6.952;2023-08-08T08:39:52;16.60;92.20
67974;DHT22;54756;51.140;6.952;2023-08-08T08:41:57;16.60;92.20
67974;DHT22;54756;51.140;6.952;2023-08-08T08:43:59;16.60;92.20
67974;DHT22;54756;51.140;6.952;2023-08-08T08:46:01;16.60;92.20
67974;DHT22;54756;51.140;6.952;2023-08-08T08:48:03;16.60;92.20
67974;DHT22;54756;51.140;6.952;2023-08-08T08:50:08;16.60;92.10
67974;DHT22;54756;51.140;6.952;2023-08-08T08:52:09;16.60;92.00
67974;DHT22;54756;51.140;6.952;2023-08-08T08:54:10;16.60;92.10
67974;DHT22;54756;51.140;6.952;2023-08-08T08:56:14;16.60;92.20
67974;DHT22;54756;51.140;6.952;2023-08-08T08:58:15;16.60;92.20
67974;DHT22;54756;51.140;6.952;2023-08-08T09:00:17;16.50;92.10
67974;DHT22;54756;51.140;6.952;2023-08-08T09:02:18;16.50;92.20
67974;DHT22;54756;51.140;6.952;2023-08-08T09:04:20;16.50;92.10
67974;DHT22;54756;51.140;6.952;2023-08-08T09:06:23;16.50;92.20
67974;DHT22;54756;51.140;6.952;2023-08-08T09:08:24;16.60;92.20
67974;DHT22;54756;51.140;6.952;2023-08-08T09:10:24;16.60;92.30
67974;DHT22;54756;51.140;6.952;2023-08-08T09:12:26;16.50;92.40
67974;DHT22;54756;51.140;6.952;2023-08-08T09:14:27;16.50;92.50
67974;DHT22;54756;51.140;6.952;2023-08-08T09:16:28;16.50;92.30
67974;DHT22;54756;51.140;6.952;2023-08-08T09:18:30;16.50;92.30
67974;DHT22;54756;51.140;6.952;2023-08-08T09:20:31;16.50;92.30
67974;DHT22;54756;51.140;6.952;2023-08-08T09:22:31;16.50;92.50
67974;DHT22;54756;51.140;6.952;2023-08-08T09:24:32;16.50;92.90
67974;DHT22;54756;51.140;6.952;2023-08-08T09:26:33;16.50;93.00
67974;DHT22;54756;51.140;6.952;2023-08-08T09:28:35;16.50;93.10
67974;DHT22;54756;51.140;6.952;2023-08-08T09:30:35;16.50;93.20
67974;DHT22;54756;51.140;6.952;2023-08-08T09:32:36;16.50;93.40
67974;DHT22;54756;51.140;6.952;2023-08-08T09:34:36;16.50;93.50
67974;DHT22;54756;51.140;6.952;2023-08-08T09:36:37;16.50;93.60
67974;DHT22;54756;51.140;6.952;2023-08-08T09:38:37;16.60;93.60
67974;DHT22;54756;51.140;6.952;2023-08-08T09:40:39;16.60;93.60
67974;DHT22;54756;51.140;6.952;2023-08-08T09:42:40;16.70;93.80
67974;DHT22;54756;51.140;6.952;2023-08-08T09:44:43;16.70;93.80
67974;DHT22;54756;51.140;6.952;2023-08-08T09:46:43;16.70;93.70
67974;DHT22;54756;51.140;6.952;2023-08-08T09:48:44;16.70;94.00
67974;DHT22;54756;51.140;6.952;2023-08-08T09:50:45;16.80;93.70
67974;DHT22;54756;51.140;6.952;2023-08-08T09:52:46;16.80;93.70
67974;DHT22;54756;51.140;6.952;2023-08-08T09:54:47;16.80;93.70
67974;DHT22;54756;51.140;6.952;2023-08-08T09:56:50;16.80;94.20
67974;DHT22;54756;51.140;6.952;2023-08-08T09:58:55;16.90;93.80
67974;DHT22;54756;51.140;6.952;2023-08-08T10:00:56;16.90;93.80
67974;DHT22;54756;51.140;6.952;2023-08-08T10:02:57;16.90;93.80
67974;DHT22;54756;51.140;6.952;2023-08-08T10:05:02;17.00;94.10
67974;DHT22;54756;51.140;6.952;2023-08-08T10:07:04;17.10;94.10
67974;DHT22;54756;51.140;6.952;2023-08-08T10:09:05;17.10;93.80
67974;DHT22;54756;51.140;6.952;2023-08-08T10:11:06;17.10;93.80
67974;DHT22;54756;51.140;6.952;2023-08-08T10:13:10;17.10;93.90
67974;DHT22;54756;51.140;6.952;2023-08-08T10:15:19;17.20;93.70
67974;DHT22;54756;51.140;6.952;2023-08-08T10:17:19;17.20;93.60
67974;DHT22;54756;51.140;6.952;2023-08-08T10:19:23;17.20;93.40
67974;DHT22;54756;51.140;6.952;2023-08-08T10:21:24;17.30;93.20
67974;DHT22;54756;51.140;6.952;2023-08-08T10:23:25;17.20;92.90
67974;DHT22;54756;51.140;6.952;2023-08-08T10:25:26;17.20;92.80
67974;DHT22;54756;51.140;6.952;2023-08-08T10:27:35;17.20;92.70
67974;DHT22;54756;51.140;6.952;2023-08-08T10:29:38;17.20;92.80
67974;DHT22;54756;51.140;6.952;2023-08-08T10:31:38;17.20;92.70
67974;DHT22;54756;51.140;6.952;2023-08-08T10:33:41;17.20;92.60
67974;DHT22;54756;51.140;6.952;2023-08-08T10:36:04;17.20;92.60
67974;DHT22;54756;51.140;6.952;2023-08-08T10:38:10;17.20;92.50
67974;DHT22;54756;51.140;6.952;2023-08-08T10:40:11;17.20;92.40
67974;DHT22;54756;51.140;6.952;2023-08-08T10:42:19;17.20;92.30
67974;DHT22;54756;51.140;6.952;2023-08-08T10:44:24;17.20;92.20
67974;DHT22;54756;51.140;6.952;2023-08-08T10:46:32;17.20;92.30
67974;DHT22;54756;51.140;6.952;2023-08-08T10:48:34;17.20;92.30
67974;DHT22;54756;51.140;6.952;2023-08-08T10:50:39;17.20;92.30
67974;DHT22;54756;51.140;6.952;2023-08-08T10:54:53;17.20;91.80
67974;DHT22;54756;51.140;6.952;2023-08-08T10:56:58;17.20;91.70
67974;DHT22;54756;51.140;6.952;2023-08-08T10:58:59;17.20;91.40
67974;DHT22;54756;51.140;6.952;2023-08-08T11:01:00;17.20;91.60
67974;DHT22;54756;51.140;6.952;2023-08-08T11:03:02;17.20;91.60
67974;DHT22;54756;51.140;6.952;2023-08-08T11:05:06;17.20;91.40
67974;DHT22;54756;51.140;6.952;2023-08-08T11:07:07;17.20;91.70
67974;DHT22;54756;51.140;6.952;2023-08-08T11:09:09;17.30;91.80
67974;DHT22;54756;51.140;6.952;2023-08-08T11:11:10;17.30;91.80
67974;DHT22;54756;51.140;6.952;2023-08-08T11:13:10;17.40;91.90
67974;DHT22;54756;51.140;6.952;2023-08-08T11:15:11;17.40;91.90
67974;DHT22;54756;51.140;6.952;2023-08-08T11:17:12;17.50;92.00
67974;DHT22;54756;51.140;6.952;2023-08-08T11:19:13;17.50;91.60
67974;DHT22;54756;51.140;6.952;2023-08-08T11:21:14;17.60;91.30
67974;DHT22;54756;51.140;6.952;2023-08-08T11:23:15;17.60;91.30
67974;DHT22;54756;51.140;6.952;2023-08-08T11:25:15;17.70;91.10
67974;DHT22;54756;51.140;6.952;2023-08-08T11:27:16;17.70;90.60
67974;DHT22;54756;51.140;6.952;2023-08-08T11:29:16;17.70;90.30
67974;DHT22;54756;51.140;6.952;2023-08-08T11:31:20;17.80;90.10
67974;DHT22;54756;51.140;6.952;2023-08-08T11:33:22;17.80;89.90
67974;DHT22;54756;51.140;6.952;2023-08-08T11:35:23;17.80;89.40
67974;DHT22;54756;51.140;6.952;2023-08-08T11:37:25;17.80;89.70
67974;DHT22;54756;51.140;6.952;2023-08-08T11:39:26;17.80;89.50
67974;DHT22;54756;51.140;6.952;2023-08-08T11:41:27;17.80;88.60
67974;DHT22;54756;51.140;6.952;2023-08-08T11:43:28;17.80;87.20
67974;DHT22;54756;51.140;6.952;2023-08-08T11:45:28;17.80;86.60
67974;DHT22;54756;51.140;6.952;2023-08-08T11:47:29;17.80;85.20
67974;DHT22;54756;51.140;6.952;2023-08-08T11:49:41;17.80;86.20
67974;DHT22;54756;51.140;6.952;2023-08-08T11:51:45;17.70;86.00
67974;DHT22;54756;51.140;6.952;2023-08-08T11:53:51;17.70;85.90
67974;DHT22;54756;51.140;6.952;2023-08-08T11:55:52;17.70;85.00
67974;DHT22;54756;51.140;6.952;2023-08-08T11:57:54;17.70;85.60
67974;DHT22;54756;51.140;6.952;2023-08-08T11:59:57;17.60;85.40
67974;DHT22;54756;51.140;6.952;2023-08-08T12:01:58;17.60;85.00
67974;DHT22;54756;51.140;6.952;2023-08-08T12:04:05;17.50;84.80
67974;DHT22;54756;51.140;6.952;2023-08-08T12:06:14;17.50;85.30
67974;DHT22;54756;51.140;6.952;2023-08-08T12:08:18;17.40;84.70
67974;DHT22;54756;51.140;6.952;2023-08-08T12:10:21;17.40;85.30
67974;DHT22;54756;51.140;6.952;2023-08-08T12:12:22;17.40;86.10
67974;DHT22;54756;51.140;6.952;2023-08-08T12:14:24;17.30;86.50
67974;DHT22;54756;51.140;6.952;2023-08-08T12:16:28;17.30;86.90
67974;DHT22;54756;51.140;6.952;2023-08-08T12:18:29;17.30;87.10
67974;DHT22;54756;51.140;6.952;2023-08-08T12:20:31;17.30;87.50
67974;DHT22;54756;51.140;6.952;2023-08-08T12:22:32;17.30;87.80
67974;DHT22;54756;51.140;6.952;2023-08-08T12:24:33;17.20;87.70
67974;DHT22;54756;51.140;6.952;2023-08-08T12:26:33;17.20;87.70
67974;DHT22;54756;51.140;6.952;2023-08-08T12:28:34;17.20;88.00
67974;DHT22;54756;51.140;6.952;2023-08-08T12:30:34;17.20;88.50
67974;DHT22;54756;51.140;6.952;2023-08-08T12:32:35;17.10;88.50
67974;DHT22;54756;51.140;6.952;2023-08-08T12:34:36;17.10;88.90
67974;DHT22;54756;51.140;6.952;2023-08-08T12:36:37;17.00;89.10
67974;DHT22;54756;51.140;6.952;2023-08-08T12:38:40;17.00;89.80
67974;DHT22;54756;51.140;6.952;2023-08-08T12:40:40;16.90;90.00
67974;DHT22;54756;51.140;6.952;2023-08-08T12:42:41;16.80;90.30
67974;DHT22;54756;51.140;6.952;2023-08-08T12:44:42;16.70;90.50
67974;DHT22;54756;51.140;6.952;2023-08-08T12:46:43;16.70;90.90
67974;DHT22;54756;51.140;6.952;2023-08-08T12:48:43;16.60;91.20
67974;DHT22;54756;51.140;6.952;2023-08-08T12:50:44;16.60;91.50